sensor_id;sensor_type;location;lat;lon;timestamp;temperature;humidity
61841;DHT22;47773;53.174;6.614;2023-06-14T00:01:52;17.00;77.50
61841;DHT22;47773;53.174;6.614;2023-06-14T00:04:18;16.90;77.80
61841;DHT22;47773;53.174;6.614;2023-06-14T00:06:46;16.90;78.20
61841;DHT22;47773;53.174;6.614;2023-06-14T00:09:12;16.90;78.50
61841;DHT22;47773;53.174;6.614;2023-06-14T00:11:43;16.90;78.90
61841;DHT22;47773;53.174;6.614;2023-06-14T00:14:09;16.80;79.30
61841;DHT22;47773;53.174;6.614;2023-06-14T00:16:35;16.80;79.70
61841;DHT22;47773;53.174;6.614;2023-06-14T00:19:03;16.70;80.30
61841;DHT22;47773;53.174;6.614;2023-06-14T00:21:30;16.70;80.90
61841;DHT22;47773;53.174;6.614;2023-06-14T00:23:57;16.60;81.40
61841;DHT22;47773;53.174;6.614;2023-06-14T00:26:23;16.50;82.30
61841;DHT22;47773;53.174;6.614;2023-06-14T00:28:49;16.50;82.70
61841;DHT22;47773;53.174;6.614;2023-06-14T00:31:15;16.50;83.40
61841;DHT22;47773;53.174;6.614;2023-06-14T00:33:40;16.40;84.00
61841;DHT22;47773;53.174;6.614;2023-06-14T00:36:06;16.40;84.70
61841;DHT22;47773;53.174;6.614;2023-06-14T00:38:32;16.40;85.40
61841;DHT22;47773;53.174;6.614;2023-06-14T00:40:57;16.30;86.20
61841;DHT22;47773;53.174;6.614;2023-06-14T00:43:23;16.30;87.10
61841;DHT22;47773;53.174;6.614;2023-06-14T00:45:48;16.20;87.70
61841;DHT22;47773;53.174;6.614;2023-06-14T00:48:15;16.20;88.90
61841;DHT22;47773;53.174;6.614;2023-06-14T00:50:41;16.10;89.60
61841;DHT22;47773;53.174;6.614;2023-06-14T00:53:07;16.10;90.10
61841;DHT22;47773;53.174;6.614;2023-06-14T00:55:33;16.10;90.50
61841;DHT22;47773;53.174;6.614;2023-06-14T00:57:59;16.10;90.80
61841;DHT22;47773;53.174;6.614;2023-06-14T01:00:25;16.10;91.20
61841;DHT22;47773;53.174;6.614;2023-06-14T01:02:51;16.10;91.50
61841;DHT22;47773;53.174;6.614;2023-06-14T01:05:17;16.00;92.00
61841;DHT22;47773;53.174;6.614;2023-06-14T01:11:02;15.90;93.80
61841;DHT22;47773;53.174;6.614;2023-06-14T01:13:35;15.90;94.50
61841;DHT22;47773;53.174;6.614;2023-06-14T01:16:02;15.80;94.40
61841;DHT22;47773;53.174;6.614;2023-06-14T01:18:28;15.70;94.90
61841;DHT22;47773;53.174;6.614;2023-06-14T01:20:55;15.70;95.40
61841;DHT22;47773;53.174;6.614;2023-06-14T01:23:22;15.60;96.00
61841;DHT22;47773;53.174;6.614;2023-06-14T01:25:49;15.70;96.40
61841;DHT22;47773;53.174;6.614;2023-06-14T01:28:19;15.60;96.90
61841;DHT22;47773;53.174;6.614;2023-06-14T01:30:49;15.60;97.40
61841;DHT22;47773;53.174;6.614;2023-06-14T01:33:22;15.60;98.00
61841;DHT22;47773;53.174;6.614;2023-06-14T01:35:50;15.60;98.60
61841;DHT22;47773;53.174;6.614;2023-06-14T01:38:19;15.50;98.80
61841;DHT22;47773;53.174;6.614;2023-06-14T01:40:45;15.50;99.70
61841;DHT22;47773;53.174;6.614;2023-06-14T01:43:14;15.40;99.90
61841;DHT22;47773;53.174;6.614;2023-06-14T01:45:42;15.40;99.90
61841;DHT22;47773;53.174;6.614;2023-06-14T01:48:08;15.40;99.90
61841;DHT22;47773;53.174;6.614;2023-06-14T01:50:34;15.40;99.90
61841;DHT22;47773;53.174;6.614;2023-06-14T01:53:00;15.40;99.90
61841;DHT22;47773;53.174;6.614;2023-06-14T01:55:26;15.40;99.90
61841;DHT22;47773;53.174;6.614;2023-06-14T01:57:53;15.30;99.90
61841;DHT22;47773;53.174;6.614;2023-06-14T02:00:19;15.30;99.90
61841;DHT22;47773;53.174;6.614;2023-06-14T02:02:45;15.30;99.90
61841;DHT22;47773;53.174;6.614;2023-06-14T02:05:11;15.30;99.90
61841;DHT22;47773;53.174;6.614;2023-06-14T02:07:37;15.30;99.90
61841;DHT22;47773;53.174;6.614;2023-06-14T02:10:04;15.30;99.90
61841;DHT22;47773;53.174;6.614;2023-06-14T02:12:29;15.30;99.90
61841;DHT22;47773;53.174;6.614;2023-06-14T02:14:55;15.30;99.90
61841;DHT22;47773;53.174;6.614;2023-06-14T02:17:22;15.30;99.90
61841;DHT22;47773;53.174;6.614;2023-06-14T02:19:48;15.30;99.90
61841;DHT22;47773;53.174;6.614;2023-06-14T02:22:15;15.30;99.90
61841;DHT22;47773;53.174;6.614;2023-06-14T02:24:41;15.30;99.90
61841;DHT22;47773;53.174;6.614;2023-06-14T02:27:07;15.30;99.90
61841;DHT22;47773;53.174;6.614;2023-06-14T02:29:36;15.40;99.90
61841;DHT22;47773;53.174;6.614;2023-06-14T02:32:02;15.30;99.90
61841;DHT22;47773;53.174;6.614;2023-06-14T02:34:27;15.30;99.90
61841;DHT22;47773;53.174;6.614;2023-06-14T02:36:53;15.30;99.90
61841;DHT22;47773;53.174;6.614;2023-06-14T02:39:20;15.30;99.90
61841;DHT22;47773;53.174;6.614;2023-06-14T02:41:49;15.30;99.90
61841;DHT22;47773;53.174;6.614;2023-06-14T02:44:17;15.20;99.90
61841;DHT22;47773;53.174;6.614;2023-06-14T02:46:43;15.30;99.90
61841;DHT22;47773;53.174;6.614;2023-06-14T02:49:10;15.20;99.90
61841;DHT22;47773;53.174;6.614;2023-06-14T02:51:35;15.20;99.90
61841;DHT22;47773;53.174;6.614;2023-06-14T02:54:01;15.20;99.90
61841;DHT22;47773;53.174;6.614;2023-06-14T02:56:27;15.20;99.90
61841;DHT22;47773;53.174;6.614;2023-06-14T02:58:53;15.10;99.90
61841;DHT22;47773;53.174;6.614;2023-06-14T03:01:19;15.10;99.90
61841;DHT22;47773;53.174;6.614;2023-06-14T03:03:46;15.10;99.90
61841;DHT22;47773;53.174;6.614;2023-06-14T03:06:12;15.10;99.90
61841;DHT22;47773;53.174;6.614;2023-06-14T03:08:40;15.10;99.90
61841;DHT22;47773;53.174;6.614;2023-06-14T03:11:07;15.10;99.90
61841;DHT22;47773;53.174;6.614;2023-06-14T03:13:36;15.00;99.90
61841;DHT22;47773;53.174;6.614;2023-06-14T03:16:03;15.00;99.90
61841;DHT22;47773;53.174;6.614;2023-06-14T03:18:31;15.00;99.90
61841;DHT22;47773;53.174;6.614;2023-06-14T03:21:01;14.90;99.90
61841;DHT22;47773;53.174;6.614;2023-06-14T03:23:27;14.90;99.90
61841;DHT22;47773;53.174;6.614;2023-06-14T03:25:53;14.90;99.90
61841;DHT22;47773;53.174;6.614;2023-06-14T03:28:18;14.90;99.90
61841;DHT22;47773;53.174;6.614;2023-06-14T03:30:44;14.80;99.90
61841;DHT22;47773;53.174;6.614;2023-06-14T03:33:10;14.80;99.90
61841;DHT22;47773;53.174;6.614;2023-06-14T03:35:36;14.80;99.90
61841;DHT22;47773;53.174;6.614;2023-06-14T03:38:02;14.80;99.90
61841;DHT22;47773;53.174;6.614;2023-06-14T03:40:29;14.80;99.90
61841;DHT22;47773;53.174;6.614;2023-06-14T03:42:55;14.70;99.90
61841;DHT22;47773;53.174;6.614;2023-06-14T03:45:21;14.70;99.90
61841;DHT22;47773;53.174;6.614;2023-06-14T03:47:47;14.70;99.90
61841;DHT22;47773;53.174;6.614;2023-06-14T03:50:12;14.70;99.90
61841;DHT22;47773;53.174;6.614;2023-06-14T03:52:38;14.70;99.90
61841;DHT22;47773;53.174;6.614;2023-06-14T03:55:04;14.70;99.90
61841;DHT22;47773;53.174;6.614;2023-06-14T03:57:30;14.70;99.90
61841;DHT22;47773;53.174;6.614;2023-06-14T03:59:56;14.70;99.90
61841;DHT22;47773;53.174;6.614;2023-06-14T04:02:22;14.70;99.90
61841;DHT22;47773;53.174;6.614;2023-06-14T04:04:48;14.70;99.90
61841;DHT22;47773;53.174;6.614;2023-06-14T04:07:17;14.70;99.90
61841;DHT22;47773;53.174;6.614;2023-06-14T04:09:45;14.70;99.90
61841;DHT22;47773;53.174;6.614;2023-06-14T04:12:11;14.70;99.90
61841;DHT22;47773;53.174;6.614;2023-06-14T04:14:37;14.70;99.90
61841;DHT22;47773;53.174;6.614;2023-06-14T04:17:03;14.70;99.90
61841;DHT22;47773;53.174;6.614;2023-06-14T04:19:29;14.90;99.90
61841;DHT22;47773;53.174;6.614;2023-06-14T04:21:55;15.10;99.90
61841;DHT22;47773;53.174;6.614;2023-06-14T04:24:21;15.20;99.90
61841;DHT22;47773;53.174;6.614;2023-06-14T04:26:49;15.40;99.90
61841;DHT22;47773;53.174;6.614;2023-06-14T04:29:15;15.60;99.90
61841;DHT22;47773;53.174;6.614;2023-06-14T04:31:45;15.80;99.90
61841;DHT22;47773;53.174;6.614;2023-06-14T04:34:11;16.00;99.90
61841;DHT22;47773;53.174;6.614;2023-06-14T04:36:41;16.10;99.90
61841;DHT22;47773;53.174;6.614;2023-06-14T04:39:08;16.20;99.90
61841;DHT22;47773;53.174;6.614;2023-06-14T04:41:34;16.20;99.90
61841;DHT22;47773;53.174;6.614;2023-06-14T04:44:00;16.20;99.90
61841;DHT22;47773;53.174;6.614;2023-06-14T04:46:29;16.20;99.90
61841;DHT22;47773;53.174;6.614;2023-06-14T04:48:57;16.10;99.90
61841;DHT22;47773;53.174;6.614;2023-06-14T04:51:27;16.10;99.90
61841;DHT22;47773;53.174;6.614;2023-06-14T04:53:57;16.00;99.90
61841;DHT22;47773;53.174;6.614;2023-06-14T04:56:24;16.00;99.90
61841;DHT22;47773;53.174;6.614;2023-06-14T04:58:52;16.00;99.90
61841;DHT22;47773;53.174;6.614;2023-06-14T05:01:19;15.90;99.90
61841;DHT22;47773;53.174;6.614;2023-06-14T05:03:46;15.90;99.90
61841;DHT22;47773;53.174;6.614;2023-06-14T05:06:14;15.90;99.90
61841;DHT22;47773;53.174;6.614;2023-06-14T05:08:40;15.90;99.90
61841;DHT22;47773;53.174;6.614;2023-06-14T05:11:05;15.90;99.90
61841;DHT22;47773;53.174;6.614;2023-06-14T05:13:31;15.90;99.90
61841;DHT22;47773;53.174;6.614;2023-06-14T05:15:58;15.90;99.90
61841;DHT22;47773;53.174;6.614;2023-06-14T05:18:24;16.00;99.90
61841;DHT22;47773;53.174;6.614;2023-06-14T05:20:51;16.00;99.90
61841;DHT22;47773;53.174;6.614;2023-06-14T05:23:16;16.10;99.90
61841;DHT22;47773;53.174;6.614;2023-06-14T05:25:43;16.10;99.90
61841;DHT22;47773;53.174;6.614;2023-06-14T05:28:09;16.20;99.90
61841;DHT22;47773;53.174;6.614;2023-06-14T05:30:35;16.20;99.90
61841;DHT22;47773;53.174;6.614;2023-06-14T05:33:01;16.30;99.90
61841;DHT22;47773;53.174;6.614;2023-06-14T05:35:27;16.30;99.90
61841;DHT22;47773;53.174;6.614;2023-06-14T05:37:53;16.30;99.90
61841;DHT22;47773;53.174;6.614;2023-06-14T05:40:19;16.30;99.90
61841;DHT22;47773;53.174;6.614;2023-06-14T05:42:45;16.40;99.90
61841;DHT22;47773;53.174;6.614;2023-06-14T05:45:11;16.40;99.90
61841;DHT22;47773;53.174;6.614;2023-06-14T05:47:37;16.40;99.90
61841;DHT22;47773;53.174;6.614;2023-06-14T05:50:03;16.50;99.90
61841;DHT22;47773;53.174;6.614;2023-06-14T05:52:29;16.50;99.90
61841;DHT22;47773;53.174;6.614;2023-06-14T05:54:55;16.60;99.90
61841;DHT22;47773;53.174;6.614;2023-06-14T05:57:21;16.60;99.90
61841;DHT22;47773;53.174;6.614;2023-06-14T05:59:46;16.70;99.90
61841;DHT22;47773;53.174;6.614;2023-06-14T06:02:12;16.80;99.90
61841;DHT22;47773;53.174;6.614;2023-06-14T06:04:38;16.90;99.90
61841;DHT22;47773;53.174;6.614;2023-06-14T06:07:03;16.90;99.90
61841;DHT22;47773;53.174;6.614;2023-06-14T06:09:31;17.00;99.90
61841;DHT22;47773;53.174;6.614;2023-06-14T06:11:56;17.10;99.90
61841;DHT22;47773;53.174;6.614;2023-06-14T06:14:22;17.20;99.90
61841;DHT22;47773;53.174;6.614;2023-06-14T06:16:47;17.20;99.90
61841;DHT22;47773;53.174;6.614;2023-06-14T06:19:13;17.30;99.90
61841;DHT22;47773;53.174;6.614;2023-06-14T06:21:39;17.40;99.90
61841;DHT22;47773;53.174;6.614;2023-06-14T06:24:05;17.50;99.90
61841;DHT22;47773;53.174;6.614;2023-06-14T06:26:31;17.70;99.90
61841;DHT22;47773;53.174;6.614;2023-06-14T06:28:58;17.80;99.90
61841;DHT22;47773;53.174;6.614;2023-06-14T06:31:24;17.90;99.90
61841;DHT22;47773;53.174;6.614;2023-06-14T06:33:50;18.00;99.90
61841;DHT22;47773;53.174;6.614;2023-06-14T06:36:15;18.20;99.90
61841;DHT22;47773;53.174;6.614;2023-06-14T06:38:41;18.30;99.90
61841;DHT22;47773;53.174;6.614;2023-06-14T06:41:07;18.40;99.90
61841;DHT22;47773;53.174;6.614;2023-06-14T06:43:33;18.50;99.90
61841;DHT22;47773;53.174;6.614;2023-06-14T06:45:59;18.60;99.90
61841;DHT22;47773;53.174;6.614;2023-06-14T06:48:24;18.80;99.90
61841;DHT22;47773;53.174;6.614;2023-06-14T06:50:50;18.80;99.90
61841;DHT22;47773;53.174;6.614;2023-06-14T06:53:16;19.00;99.90
61841;DHT22;47773;53.174;6.614;2023-06-14T06:55:44;19.10;99.90
61841;DHT22;47773;53.174;6.614;2023-06-14T06:58:11;19.20;99.90
61841;DHT22;47773;53.174;6.614;2023-06-14T07:00:37;19.30;99.90
61841;DHT22;47773;53.174;6.614;2023-06-14T07:03:03;19.50;99.90
61841;DHT22;47773;53.174;6.614;2023-06-14T07:05:29;19.70;99.90
61841;DHT22;47773;53.174;6.614;2023-06-14T07:07:55;19.90;99.90
61841;DHT22;47773;53.174;6.614;2023-06-14T07:10:21;20.00;99.90
61841;DHT22;47773;53.174;6.614;2023-06-14T07:12:47;20.20;99.90
61841;DHT22;47773;53.174;6.614;2023-06-14T07:15:12;20.20;99.90
61841;DHT22;47773;53.174;6.614;2023-06-14T07:17:38;20.30;98.90
61841;DHT22;47773;53.174;6.614;2023-06-14T07:20:04;20.40;98.30
61841;DHT22;47773;53.174;6.614;2023-06-14T07:22:33;20.60;97.90
61841;DHT22;47773;53.174;6.614;2023-06-14T07:24:59;20.50;97.20
61841;DHT22;47773;53.174;6.614;2023-06-14T07:27:25;20.50;96.50
61841;DHT22;47773;53.174;6.614;2023-06-14T07:29:50;20.60;96.20
61841;DHT22;47773;53.174;6.614;2023-06-14T07:32:16;20.60;95.80
61841;DHT22;47773;53.174;6.614;2023-06-14T07:34:42;20.70;95.70
61841;DHT22;47773;53.174;6.614;2023-06-14T07:37:07;20.90;95.10
61841;DHT22;47773;53.174;6.614;2023-06-14T07:39:33;21.00;94.50
61841;DHT22;47773;53.174;6.614;2023-06-14T07:41:59;21.10;94.20
61841;DHT22;47773;53.174;6.614;2023-06-14T07:44:24;21.40;93.80
61841;DHT22;47773;53.174;6.614;2023-06-14T07:46:50;21.50;93.10
61841;DHT22;47773;53.174;6.614;2023-06-14T07:49:16;21.80;92.40
61841;DHT22;47773;53.174;6.614;2023-06-14T07:51:41;22.00;91.70
61841;DHT22;47773;53.174;6.614;2023-06-14T07:54:08;22.40;91.20
61841;DHT22;47773;53.174;6.614;2023-06-14T07:56:34;22.60;90.40
61841;DHT22;47773;53.174;6.614;2023-06-14T07:59:01;22.70;89.30
61841;DHT22;47773;53.174;6.614;2023-06-14T08:01:26;22.70;88.00
61841;DHT22;47773;53.174;6.614;2023-06-14T08:03:53;22.90;87.20
61841;DHT22;47773;53.174;6.614;2023-06-14T08:06:19;23.10;86.30
61841;DHT22;47773;53.174;6.614;2023-06-14T08:08:44;23.20;85.10
61841;DHT22;47773;53.174;6.614;2023-06-14T08:11:10;23.40;84.80
61841;DHT22;47773;53.174;6.614;2023-06-14T08:13:36;23.40;82.80
61841;DHT22;47773;53.174;6.614;2023-06-14T08:16:01;23.60;82.40
61841;DHT22;47773;53.174;6.614;2023-06-14T08:18:30;23.90;81.50
61841;DHT22;47773;53.174;6.614;2023-06-14T08:20:55;23.80;79.80
61841;DHT22;47773;53.174;6.614;2023-06-14T08:23:23;23.80;79.20
61841;DHT22;47773;53.174;6.614;2023-06-14T08:25:48;23.90;79.00
61841;DHT22;47773;53.174;6.614;2023-06-14T08:28:14;24.00;78.40
61841;DHT22;47773;53.174;6.614;2023-06-14T08:30:42;24.20;77.40
61841;DHT22;47773;53.174;6.614;2023-06-14T08:33:08;24.50;76.50
61841;DHT22;47773;53.174;6.614;2023-06-14T08:35:33;24.50;75.70
61841;DHT22;47773;53.174;6.614;2023-06-14T08:38:03;24.80;75.10
61841;DHT22;47773;53.174;6.614;2023-06-14T08:40:30;24.90;73.70
61841;DHT22;47773;53.174;6.614;2023-06-14T08:42:56;24.80;73.30
61841;DHT22;47773;53.174;6.614;2023-06-14T08:45:23;24.80;72.80
61841;DHT22;47773;53.174;6.614;2023-06-14T08:47:53;24.70;71.90
61841;DHT22;47773;53.174;6.614;2023-06-14T08:50:24;24.80;71.20
61841;DHT22;47773;53.174;6.614;2023-06-14T08:52:54;24.80;70.90
61841;DHT22;47773;53.174;6.614;2023-06-14T08:55:22;24.80;70.10
61841;DHT22;47773;53.174;6.614;2023-06-14T08:57:51;24.80;69.60
61841;DHT22;47773;53.174;6.614;2023-06-14T09:00:19;24.80;69.40
61841;DHT22;47773;53.174;6.614;2023-06-14T09:02:46;24.90;69.50
61841;DHT22;47773;53.174;6.614;2023-06-14T09:05:12;24.90;68.90
61841;DHT22;47773;53.174;6.614;2023-06-14T09:07:42;24.90;68.30
61841;DHT22;47773;53.174;6.614;2023-06-14T09:10:15;24.90;67.60
61841;DHT22;47773;53.174;6.614;2023-06-14T09:12:41;25.00;67.50
61841;DHT22;47773;53.174;6.614;2023-06-14T09:15:08;25.20;67.40
61841;DHT22;47773;53.174;6.614;2023-06-14T09:17:38;25.20;67.30
61841;DHT22;47773;53.174;6.614;2023-06-14T09:20:05;25.40;66.90
61841;DHT22;47773;53.174;6.614;2023-06-14T09:22:43;25.40;66.30
61841;DHT22;47773;53.174;6.614;2023-06-14T09:25:09;25.50;66.50
61841;DHT22;47773;53.174;6.614;2023-06-14T09:27:35;25.70;66.30
61841;DHT22;47773;53.174;6.614;2023-06-14T09:30:05;25.70;65.80
61841;DHT22;47773;53.174;6.614;2023-06-14T09:32:37;25.70;65.70
61841;DHT22;47773;53.174;6.614;2023-06-14T09:35:05;25.60;64.70
61841;DHT22;47773;53.174;6.614;2023-06-14T09:37:32;25.50;65.00
61841;DHT22;47773;53.174;6.614;2023-06-14T09:39:58;25.50;64.50
61841;DHT22;47773;53.174;6.614;2023-06-14T09:42:25;25.40;65.50
61841;DHT22;47773;53.174;6.614;2023-06-14T09:44:52;25.70;65.60
61841;DHT22;47773;53.174;6.614;2023-06-14T09:47:19;25.80;64.90
61841;DHT22;47773;53.174;6.614;2023-06-14T09:49:46;25.80;64.60
61841;DHT22;47773;53.174;6.614;2023-06-14T09:52:17;25.80;64.30
61841;DHT22;47773;53.174;6.614;2023-06-14T09:54:45;25.80;64.00
61841;DHT22;47773;53.174;6.614;2023-06-14T09:57:24;26.10;64.10
61841;DHT22;47773;53.174;6.614;2023-06-14T09:59:57;26.20;63.10
61841;DHT22;47773;53.174;6.614;2023-06-14T10:02:28;26.20;62.80
61841;DHT22;47773;53.174;6.614;2023-06-14T10:05:04;26.30;63.10
61841;DHT22;47773;53.174;6.614;2023-06-14T10:07:59;26.40;61.90
61841;DHT22;47773;53.174;6.614;2023-06-14T10:10:25;26.40;60.70
61841;DHT22;47773;53.174;6.614;2023-06-14T10:12:51;26.20;61.70
61841;DHT22;47773;53.174;6.614;2023-06-14T10:15:32;26.10;61.10
61841;DHT22;47773;53.174;6.614;2023-06-14T10:23:30;26.30;60.50
61841;DHT22;47773;53.174;6.614;2023-06-14T10:25:58;26.20;60.70
61841;DHT22;47773;53.174;6.614;2023-06-14T10:28:25;26.20;60.60
61841;DHT22;47773;53.174;6.614;2023-06-14T10:33:30;26.40;61.30
61841;DHT22;47773;53.174;6.614;2023-06-14T10:38:42;27.00;62.30
61841;DHT22;47773;53.174;6.614;2023-06-14T10:41:07;27.10;61.80
61841;DHT22;47773;53.174;6.614;2023-06-14T10:43:33;26.70;61.20
61841;DHT22;47773;53.174;6.614;2023-06-14T10:48:41;26.50;59.70
61841;DHT22;47773;53.174;6.614;2023-06-14T10:51:16;26.50;60.90
61841;DHT22;47773;53.174;6.614;2023-06-14T10:53:51;26.70;60.20
61841;DHT22;47773;53.174;6.614;2023-06-14T10:56:24;26.70;60.60
61841;DHT22;47773;53.174;6.614;2023-06-14T10:58:52;26.40;60.70
61841;DHT22;47773;53.174;6.614;2023-06-14T11:04:17;26.30;60.60
61841;DHT22;47773;53.174;6.614;2023-06-14T11:12:09;26.70;60.00
61841;DHT22;47773;53.174;6.614;2023-06-14T11:14:36;26.70;60.10
61841;DHT22;47773;53.174;6.614;2023-06-14T11:17:02;26.80;60.40
61841;DHT22;47773;53.174;6.614;2023-06-14T11:19:28;27.00;60.10
61841;DHT22;47773;53.174;6.614;2023-06-14T11:21:55;27.00;59.90
61841;DHT22;47773;53.174;6.614;2023-06-14T11:24:20;27.10;59.70
61841;DHT22;47773;53.174;6.614;2023-06-14T11:26:47;27.10;59.80
61841;DHT22;47773;53.174;6.614;2023-06-14T11:29:15;27.10;59.50
61841;DHT22;47773;53.174;6.614;2023-06-14T11:31:43;27.10;59.30
61841;DHT22;47773;53.174;6.614;2023-06-14T11:34:12;27.40;58.50
61841;DHT22;47773;53.174;6.614;2023-06-14T11:36:38;27.50;57.80
61841;DHT22;47773;53.174;6.614;2023-06-14T11:39:06;27.40;58.00
61841;DHT22;47773;53.174;6.614;2023-06-14T11:41:44;27.50;58.10
61841;DHT22;47773;53.174;6.614;2023-06-14T11:44:10;27.40;57.20
61841;DHT22;47773;53.174;6.614;2023-06-14T11:46:37;27.50;57.70
61841;DHT22;47773;53.174;6.614;2023-06-14T11:49:03;27.60;56.80
61841;DHT22;47773;53.174;6.614;2023-06-14T11:51:33;27.40;56.70
61841;DHT22;47773;53.174;6.614;2023-06-14T11:54:02;27.40;57.10
61841;DHT22;47773;53.174;6.614;2023-06-14T11:56:28;27.50;56.10
61841;DHT22;47773;53.174;6.614;2023-06-14T11:58:54;27.50;56.10
61841;DHT22;47773;53.174;6.614;2023-06-14T12:01:23;27.40;55.50
61841;DHT22;47773;53.174;6.614;2023-06-14T12:03:53;27.50;55.70
61841;DHT22;47773;53.174;6.614;2023-06-14T12:06:27;27.80;55.70
61841;DHT22;47773;53.174;6.614;2023-06-14T12:09:06;27.80;54.80
61841;DHT22;47773;53.174;6.614;2023-06-14T12:11:38;27.40;55.20
61841;DHT22;47773;53.174;6.614;2023-06-14T12:14:05;27.40;55.60
61841;DHT22;47773;53.174;6.614;2023-06-14T12:16:33;27.30;55.80
61841;DHT22;47773;53.174;6.614;2023-06-14T12:19:11;27.20;55.60
61841;DHT22;47773;53.174;6.614;2023-06-14T12:21:38;27.00;55.00
61841;DHT22;47773;53.174;6.614;2023-06-14T12:24:06;26.90;55.80
61841;DHT22;47773;53.174;6.614;2023-06-14T12:26:32;26.90;56.00
61841;DHT22;47773;53.174;6.614;2023-06-14T12:28:59;26.90;55.30
61841;DHT22;47773;53.174;6.614;2023-06-14T12:31:25;26.60;55.60
61841;DHT22;47773;53.174;6.614;2023-06-14T12:33:52;26.70;55.60
61841;DHT22;47773;53.174;6.614;2023-06-14T12:36:18;26.60;55.60
61841;DHT22;47773;53.174;6.614;2023-06-14T12:38:45;26.50;55.70
61841;DHT22;47773;53.174;6.614;2023-06-14T12:41:11;26.50;56.10
61841;DHT22;47773;53.174;6.614;2023-06-14T12:43:37;26.60;56.10
61841;DHT22;47773;53.174;6.614;2023-06-14T12:46:03;26.70;55.80
61841;DHT22;47773;53.174;6.614;2023-06-14T12:48:28;26.80;55.50
61841;DHT22;47773;53.174;6.614;2023-06-14T12:50:56;26.50;55.80
61841;DHT22;47773;53.174;6.614;2023-06-14T12:53:23;26.50;55.90
61841;DHT22;47773;53.174;6.614;2023-06-14T12:55:49;26.50;55.80
61841;DHT22;47773;53.174;6.614;2023-06-14T12:58:14;26.70;56.00
61841;DHT22;47773;53.174;6.614;2023-06-14T13:00:42;26.80;55.30
61841;DHT22;47773;53.174;6.614;2023-06-14T13:03:10;26.90;55.20
61841;DHT22;47773;53.174;6.614;2023-06-14T13:05:35;27.00;54.90
61841;DHT22;47773;53.174;6.614;2023-06-14T13:08:02;27.00;54.80
61841;DHT22;47773;53.174;6.614;2023-06-14T13:10:28;26.80;54.70
61841;DHT22;47773;53.174;6.614;2023-06-14T13:12:54;26.60;55.10
61841;DHT22;47773;53.174;6.614;2023-06-14T13:15:19;26.30;55.20
61841;DHT22;47773;53.174;6.614;2023-06-14T13:17:45;25.90;55.60
61841;DHT22;47773;53.174;6.614;2023-06-14T13:20:14;25.70;56.10
61841;DHT22;47773;53.174;6.614;2023-06-14T13:22:40;25.60;56.40
61841;DHT22;47773;53.174;6.614;2023-06-14T13:25:07;25.80;56.20
61841;DHT22;47773;53.174;6.614;2023-06-14T13:27:32;26.00;56.00
61841;DHT22;47773;53.174;6.614;2023-06-14T13:29:58;25.90;55.70
61841;DHT22;47773;53.174;6.614;2023-06-14T13:32:24;25.70;56.00
61841;DHT22;47773;53.174;6.614;2023-06-14T13:34:50;25.90;56.50
61841;DHT22;47773;53.174;6.614;2023-06-14T13:37:16;26.10;56.30
61841;DHT22;47773;53.174;6.614;2023-06-14T13:39:41;26.30;56.30
61841;DHT22;47773;53.174;6.614;2023-06-14T13:42:07;26.30;55.60
61841;DHT22;47773;53.174;6.614;2023-06-14T13:44:33;26.50;55.40
61841;DHT22;47773;53.174;6.614;2023-06-14T13:46:59;26.40;55.10
61841;DHT22;47773;53.174;6.614;2023-06-14T13:49:25;26.50;55.40
61841;DHT22;47773;53.174;6.614;2023-06-14T13:51:51;26.10;55.10
61841;DHT22;47773;53.174;6.614;2023-06-14T13:54:19;26.20;55.50
61841;DHT22;47773;53.174;6.614;2023-06-14T13:56:46;26.30;55.50
61841;DHT22;47773;53.174;6.614;2023-06-14T13:59:11;26.00;55.40
61841;DHT22;47773;53.174;6.614;2023-06-14T15:13:26;25.30;56.30
61841;DHT22;47773;53.174;6.614;2023-06-14T15:15:53;25.40;56.00
61841;DHT22;47773;53.174;6.614;2023-06-14T15:18:19;25.60;56.00
61841;DHT22;47773;53.174;6.614;2023-06-14T15:20:46;25.80;56.00
61841;DHT22;47773;53.174;6.614;2023-06-14T15:23:11;26.00;55.90
61841;DHT22;47773;53.174;6.614;2023-06-14T15:25:40;26.00;55.90
61841;DHT22;47773;53.174;6.614;2023-06-14T15:28:05;25.80;56.00
61841;DHT22;47773;53.174;6.614;2023-06-14T15:30:32;25.60;56.00
61841;DHT22;47773;53.174;6.614;2023-06-14T15:32:58;25.50;57.10
61841;DHT22;47773;53.174;6.614;2023-06-14T15:35:23;25.30;56.50
61841;DHT22;47773;53.174;6.614;2023-06-14T15:37:49;25.20;56.70
61841;DHT22;47773;53.174;6.614;2023-06-14T15:40:15;25.10;56.60
61841;DHT22;47773;53.174;6.614;2023-06-14T15:42:41;24.90;56.70
61841;DHT22;47773;53.174;6.614;2023-06-14T15:45:07;24.90;56.80
61841;DHT22;47773;53.174;6.614;2023-06-14T15:47:33;24.90;57.00
61841;DHT22;47773;53.174;6.614;2023-06-14T15:49:58;25.00;56.90
61841;DHT22;47773;53.174;6.614;2023-06-14T15:52:24;25.00;57.10
61841;DHT22;47773;53.174;6.614;2023-06-14T15:54:50;25.20;57.60
61841;DHT22;47773;53.174;6.614;2023-06-14T15:57:16;25.30;57.60
61841;DHT22;47773;53.174;6.614;2023-06-14T15:59:41;25.50;57.20
61841;DHT22;47773;53.174;6.614;2023-06-14T16:02:07;25.50;56.70
61841;DHT22;47773;53.174;6.614;2023-06-14T16:04:32;25.50;56.90
61841;DHT22;47773;53.174;6.614;2023-06-14T16:06:58;25.40;57.20
61841;DHT22;47773;53.174;6.614;2023-06-14T16:09:24;25.30;57.10
61841;DHT22;47773;53.174;6.614;2023-06-14T16:11:50;25.30;57.30
61841;DHT22;47773;53.174;6.614;2023-06-14T16:14:15;25.20;57.30
61841;DHT22;47773;53.174;6.614;2023-06-14T16:16:41;25.20;57.50
61841;DHT22;47773;53.174;6.614;2023-06-14T16:19:07;25.20;57.60
61841;DHT22;47773;53.174;6.614;2023-06-14T16:21:33;25.20;57.40
61841;DHT22;47773;53.174;6.614;2023-06-14T16:24:04;25.20;57.30
61841;DHT22;47773;53.174;6.614;2023-06-14T16:26:30;25.10;57.00
61841;DHT22;47773;53.174;6.614;2023-06-14T16:28:56;24.90;56.80
61841;DHT22;47773;53.174;6.614;2023-06-14T16:31:22;24.80;57.10
61841;DHT22;47773;53.174;6.614;2023-06-14T16:33:48;24.70;57.40
61841;DHT22;47773;53.174;6.614;2023-06-14T16:36:20;24.80;59.00
61841;DHT22;47773;53.174;6.614;2023-06-14T16:38:46;24.80;62.60
61841;DHT22;47773;53.174;6.614;2023-06-14T16:41:11;24.80;65.00
61841;DHT22;47773;53.174;6.614;2023-06-14T16:43:38;24.80;66.60
61841;DHT22;47773;53.174;6.614;2023-06-14T16:46:04;24.60;67.80
61841;DHT22;47773;53.174;6.614;2023-06-14T16:48:29;24.40;68.40
61841;DHT22;47773;53.174;6.614;2023-06-14T16:50:55;24.20;69.60
61841;DHT22;47773;53.174;6.614;2023-06-14T16:53:21;24.00;70.20
61841;DHT22;47773;53.174;6.614;2023-06-14T16:55:46;23.70;71.00
61841;DHT22;47773;53.174;6.614;2023-06-14T16:58:12;23.60;71.60
61841;DHT22;47773;53.174;6.614;2023-06-14T17:00:38;23.50;72.30
61841;DHT22;47773;53.174;6.614;2023-06-14T17:03:03;23.40;73.10
61841;DHT22;47773;53.174;6.614;2023-06-14T17:05:31;23.30;73.80